sensor_id;sensor_type;location;lat;lon;timestamp;P1;durP1;ratioP1;P2;durP2;ratioP2
52268;SDS011;38224;50.950;4.100;2023-01-29T00:01:32;87.93;;;43.03;;
52268;SDS011;38224;50.950;4.100;2023-01-29T00:03:57;83.53;;;41.40;;
52268;SDS011;38224;50.950;4.100;2023-01-29T00:06:22;81.47;;;42.50;;
52268;SDS011;38224;50.950;4.100;2023-01-29T00:08:48;88.68;;;44.10;;
52268;SDS011;38224;50.950;4.100;2023-01-29T00:11:13;82.85;;;44.15;;
52268;SDS011;38224;50.950;4.100;2023-01-29T00:13:40;81.32;;;42.20;;
52268;SDS011;38224;50.950;4.100;2023-01-29T00:16:05;77.20;;;39.60;;
52268;SDS011;38224;50.950;4.100;2023-01-29T00:18:31;82.28;;;41.70;;
52268;SDS011;38224;50.950;4.100;2023-01-29T00:20:56;82.07;;;41.30;;
52268;SDS011;38224;50.950;4.100;2023-01-29T00:23:22;80.75;;;41.28;;
52268;SDS011;38224;50.950;4.100;2023-01-29T00:25:47;85.28;;;41.20;;
52268;SDS011;38224;50.950;4.100;2023-01-29T00:28:13;76.82;;;39.90;;
52268;SDS011;38224;50.950;4.100;2023-01-29T00:30:38;86.00;;;40.72;;
52268;SDS011;38224;50.950;4.100;2023-01-29T00:33:03;79.57;;;41.85;;
52268;SDS011;38224;50.950;4.100;2023-01-29T00:35:29;77.07;;;40.35;;
52268;SDS011;38224;50.950;4.100;2023-01-29T00:37:54;84.95;;;42.28;;
52268;SDS011;38224;50.950;4.100;2023-01-29T00:40:20;80.97;;;42.65;;
52268;SDS011;38224;50.950;4.100;2023-01-29T00:42:45;87.63;;;43.60;;
52268;SDS011;38224;50.950;4.100;2023-01-29T00:45:29;85.95;;;46.70;;
52268;SDS011;38224;50.950;4.100;2023-01-29T00:47:54;91.20;;;45.33;;
52268;SDS011;38224;50.950;4.100;2023-01-29T00:50:19;84.95;;;42.95;;
52268;SDS011;38224;50.950;4.100;2023-01-29T00:52:45;84.38;;;43.67;;
52268;SDS011;38224;50.950;4.100;2023-01-29T00:55:12;85.22;;;43.50;;
52268;SDS011;38224;50.950;4.100;2023-01-29T00:57:37;87.30;;;42.80;;
52268;SDS011;38224;50.950;4.100;2023-01-29T01:00:03;86.05;;;44.50;;
52268;SDS011;38224;50.950;4.100;2023-01-29T01:02:29;85.50;;;43.95;;
52268;SDS011;38224;50.950;4.100;2023-01-29T01:05:13;82.57;;;40.38;;
52268;SDS011;38224;50.950;4.100;2023-01-29T01:07:41;80.32;;;41.45;;
52268;SDS011;38224;50.950;4.100;2023-01-29T01:10:08;80.13;;;41.75;;
52268;SDS011;38224;50.950;4.100;2023-01-29T01:12:46;90.18;;;42.45;;
52268;SDS011;38224;50.950;4.100;2023-01-29T01:15:11;84.05;;;42.63;;
52268;SDS011;38224;50.950;4.100;2023-01-29T01:17:37;85.40;;;42.35;;
52268;SDS011;38224;50.950;4.100;2023-01-29T01:20:02;80.45;;;41.53;;
52268;SDS011;38224;50.950;4.100;2023-01-29T01:22:28;78.13;;;40.95;;
52268;SDS011;38224;50.950;4.100;2023-01-29T01:24:53;85.18;;;42.53;;
52268;SDS011;38224;50.950;4.100;2023-01-29T01:27:19;83.60;;;40.00;;
52268;SDS011;38224;50.950;4.100;2023-01-29T01:29:44;75.07;;;38.80;;
52268;SDS011;38224;50.950;4.100;2023-01-29T01:32:10;75.72;;;38.72;;
52268;SDS011;38224;50.950;4.100;2023-01-29T01:34:35;74.68;;;38.53;;
52268;SDS011;38224;50.950;4.100;2023-01-29T01:37:01;74.05;;;39.70;;
52268;SDS011;38224;50.950;4.100;2023-01-29T01:39:26;77.53;;;39.22;;
52268;SDS011;38224;50.950;4.100;2023-01-29T01:41:51;80.53;;;40.75;;
52268;SDS011;38224;50.950;4.100;2023-01-29T01:47:03;83.28;;;40.40;;
52268;SDS011;38224;50.950;4.100;2023-01-29T01:49:28;79.25;;;42.10;;
52268;SDS011;38224;50.950;4.100;2023-01-29T01:51:53;78.13;;;40.42;;
52268;SDS011;38224;50.950;4.100;2023-01-29T01:54:23;74.07;;;39.22;;
52268;SDS011;38224;50.950;4.100;2023-01-29T01:56:50;80.25;;;40.03;;
52268;SDS011;38224;50.950;4.100;2023-01-29T01:59:19;82.90;;;40.53;;
52268;SDS011;38224;50.950;4.100;2023-01-29T02:01:46;77.43;;;41.00;;
52268;SDS011;38224;50.950;4.100;2023-01-29T02:04:15;79.13;;;40.63;;
52268;SDS011;38224;50.950;4.100;2023-01-29T02:07:01;73.65;;;39.97;;
52268;SDS011;38224;50.950;4.100;2023-01-29T02:09:48;78.90;;;39.35;;
52268;SDS011;38224;50.950;4.100;2023-01-29T02:12:15;81.82;;;41.72;;
52268;SDS011;38224;50.950;4.100;2023-01-29T02:14:41;84.82;;;42.40;;
52268;SDS011;38224;50.950;4.100;2023-01-29T02:17:07;83.78;;;43.13;;
52268;SDS011;38224;50.950;4.100;2023-01-29T02:35:41;82.57;;;40.38;;
52268;SDS011;38224;50.950;4.100;2023-01-29T02:38:24;83.05;;;42.05;;
52268;SDS011;38224;50.950;4.100;2023-01-29T02:41:03;86.75;;;43.72;;
52268;SDS011;38224;50.950;4.100;2023-01-29T02:49:23;85.60;;;41.88;;
52268;SDS011;38224;50.950;4.100;2023-01-29T02:54:09;77.63;;;40.87;;
52268;SDS011;38224;50.950;4.100;2023-01-29T02:59:17;75.85;;;39.28;;
52268;SDS011;38224;50.950;4.100;2023-01-29T03:01:46;79.53;;;39.50;;
52268;SDS011;38224;50.950;4.100;2023-01-29T03:04:14;68.78;;;37.10;;
52268;SDS011;38224;50.950;4.100;2023-01-29T03:06:42;72.60;;;38.55;;
52268;SDS011;38224;50.950;4.100;2023-01-29T03:09:29;71.40;;;37.95;;
52268;SDS011;38224;50.950;4.100;2023-01-29T03:11:59;77.30;;;39.00;;
52268;SDS011;38224;50.950;4.100;2023-01-29T03:17:15;83.10;;;39.83;;
52268;SDS011;38224;50.950;4.100;2023-01-29T03:19:40;77.20;;;41.40;;
52268;SDS011;38224;50.950;4.100;2023-01-29T03:22:07;82.70;;;40.65;;
52268;SDS011;38224;50.950;4.100;2023-01-29T03:24:48;76.70;;;40.10;;
52268;SDS011;38224;50.950;4.100;2023-01-29T03:27:39;77.68;;;42.55;;
52268;SDS011;38224;50.950;4.100;2023-01-29T03:30:24;76.68;;;40.30;;
52268;SDS011;38224;50.950;4.100;2023-01-29T03:33:09;84.18;;;39.30;;
52268;SDS011;38224;50.950;4.100;2023-01-29T03:35:57;75.88;;;40.65;;
52268;SDS011;38224;50.950;4.100;2023-01-29T03:38:22;76.95;;;40.63;;
52268;SDS011;38224;50.950;4.100;2023-01-29T03:43:33;76.88;;;41.92;;
52268;SDS011;38224;50.950;4.100;2023-01-29T03:46:09;79.50;;;38.30;;
52268;SDS011;38224;50.950;4.100;2023-01-29T03:51:36;74.72;;;36.17;;
52268;SDS011;38224;50.950;4.100;2023-01-29T03:59:40;89.97;;;38.85;;
52268;SDS011;38224;50.950;4.100;2023-01-29T04:02:12;84.03;;;39.78;;
52268;SDS011;38224;50.950;4.100;2023-01-29T04:04:38;79.68;;;38.28;;
52268;SDS011;38224;50.950;4.100;2023-01-29T04:07:16;77.28;;;39.53;;
52268;SDS011;38224;50.950;4.100;2023-01-29T04:09:44;77.75;;;39.22;;
52268;SDS011;38224;50.950;4.100;2023-01-29T04:12:11;75.82;;;39.28;;
52268;SDS011;38224;50.950;4.100;2023-01-29T04:14:37;77.05;;;38.65;;
52268;SDS011;38224;50.950;4.100;2023-01-29T04:17:20;76.18;;;38.53;;
52268;SDS011;38224;50.950;4.100;2023-01-29T04:19:46;80.15;;;38.83;;
52268;SDS011;38224;50.950;4.100;2023-01-29T04:22:14;76.25;;;39.70;;
52268;SDS011;38224;50.950;4.100;2023-01-29T04:24:41;86.22;;;40.05;;
52268;SDS011;38224;50.950;4.100;2023-01-29T04:27:25;83.03;;;39.88;;
52268;SDS011;38224;50.950;4.100;2023-01-29T04:34:59;78.82;;;39.95;;
52268;SDS011;38224;50.950;4.100;2023-01-29T04:42:47;91.45;;;44.50;;
52268;SDS011;38224;50.950;4.100;2023-01-29T04:45:19;78.28;;;41.58;;
52268;SDS011;38224;50.950;4.100;2023-01-29T04:50:13;80.90;;;41.53;;
52268;SDS011;38224;50.950;4.100;2023-01-29T04:52:45;79.43;;;39.78;;
52268;SDS011;38224;50.950;4.100;2023-01-29T04:55:29;79.30;;;38.88;;
52268;SDS011;38224;50.950;4.100;2023-01-29T04:58:03;80.55;;;36.65;;
52268;SDS011;38224;50.950;4.100;2023-01-29T05:00:31;73.28;;;36.88;;
52268;SDS011;38224;50.950;4.100;2023-01-29T05:02:58;77.43;;;39.20;;
52268;SDS011;38224;50.950;4.100;2023-01-29T05:05:24;83.80;;;39.85;;
52268;SDS011;38224;50.950;4.100;2023-01-29T05:07:49;74.20;;;34.93;;
52268;SDS011;38224;50.950;4.100;2023-01-29T05:10:17;80.50;;;37.53;;
52268;SDS011;38224;50.950;4.100;2023-01-29T05:12:43;79.03;;;37.85;;
52268;SDS011;38224;50.950;4.100;2023-01-29T05:15:11;77.85;;;37.17;;
52268;SDS011;38224;50.950;4.100;2023-01-29T05:17:38;81.38;;;39.08;;
52268;SDS011;38224;50.950;4.100;2023-01-29T05:20:04;77.63;;;39.00;;
52268;SDS011;38224;50.950;4.100;2023-01-29T05:22:30;77.55;;;37.35;;
52268;SDS011;38224;50.950;4.100;2023-01-29T05:24:55;86.47;;;40.55;;
52268;SDS011;38224;50.950;4.100;2023-01-29T05:27:23;80.43;;;38.27;;
52268;SDS011;38224;50.950;4.100;2023-01-29T05:30:07;79.25;;;40.38;;
52268;SDS011;38224;50.950;4.100;2023-01-29T05:32:34;84.65;;;40.60;;
52268;SDS011;38224;50.950;4.100;2023-01-29T05:34:59;91.57;;;42.47;;
52268;SDS011;38224;50.950;4.100;2023-01-29T05:37:24;81.03;;;40.28;;
52268;SDS011;38224;50.950;4.100;2023-01-29T05:39:50;81.70;;;40.33;;
52268;SDS011;38224;50.950;4.100;2023-01-29T05:42:15;84.90;;;41.43;;
52268;SDS011;38224;50.950;4.100;2023-01-29T05:44:40;81.55;;;40.83;;
52268;SDS011;38224;50.950;4.100;2023-01-29T05:47:05;82.50;;;40.42;;
52268;SDS011;38224;50.950;4.100;2023-01-29T05:49:31;74.55;;;38.30;;
52268;SDS011;38224;50.950;4.100;2023-01-29T05:51:56;80.82;;;41.55;;
52268;SDS011;38224;50.950;4.100;2023-01-29T05:54:21;84.63;;;40.45;;
52268;SDS011;38224;50.950;4.100;2023-01-29T05:56:46;76.73;;;37.67;;
52268;SDS011;38224;50.950;4.100;2023-01-29T05:59:12;85.70;;;42.22;;
52268;SDS011;38224;50.950;4.100;2023-01-29T06:01:37;74.72;;;38.05;;
52268;SDS011;38224;50.950;4.100;2023-01-29T06:04:03;74.28;;;37.92;;
52268;SDS011;38224;50.950;4.100;2023-01-29T06:06:28;80.32;;;40.25;;
52268;SDS011;38224;50.950;4.100;2023-01-29T06:08:54;81.70;;;37.97;;
52268;SDS011;38224;50.950;4.100;2023-01-29T06:11:19;78.43;;;39.42;;
52268;SDS011;38224;50.950;4.100;2023-01-29T06:13:45;86.03;;;42.00;;
52268;SDS011;38224;50.950;4.100;2023-01-29T06:16:11;80.25;;;39.05;;
52268;SDS011;38224;50.950;4.100;2023-01-29T06:18:37;85.80;;;40.17;;
52268;SDS011;38224;50.950;4.100;2023-01-29T06:21:03;85.18;;;42.92;;
52268;SDS011;38224;50.950;4.100;2023-01-29T06:23:29;82.45;;;40.63;;
52268;SDS011;38224;50.950;4.100;2023-01-29T06:25:58;81.90;;;39.45;;
52268;SDS011;38224;50.950;4.100;2023-01-29T06:28:24;83.55;;;43.70;;
52268;SDS011;38224;50.950;4.100;2023-01-29T06:30:49;87.47;;;43.38;;
52268;SDS011;38224;50.950;4.100;2023-01-29T06:33:14;81.23;;;41.07;;
52268;SDS011;38224;50.950;4.100;2023-01-29T06:35:39;85.03;;;39.88;;
52268;SDS011;38224;50.950;4.100;2023-01-29T06:38:05;85.97;;;40.43;;
52268;SDS011;38224;50.950;4.100;2023-01-29T06:40:30;80.30;;;39.27;;
52268;SDS011;38224;50.950;4.100;2023-01-29T06:42:55;83.40;;;39.80;;
52268;SDS011;38224;50.950;4.100;2023-01-29T06:45:20;83.50;;;42.30;;
52268;SDS011;38224;50.950;4.100;2023-01-29T06:47:46;80.85;;;39.85;;
52268;SDS011;38224;50.950;4.100;2023-01-29T06:50:11;80.80;;;40.35;;
52268;SDS011;38224;50.950;4.100;2023-01-29T06:52:36;83.03;;;40.10;;
52268;SDS011;38224;50.950;4.100;2023-01-29T06:55:01;89.07;;;41.73;;
52268;SDS011;38224;50.950;4.100;2023-01-29T06:57:30;84.65;;;42.35;;
52268;SDS011;38224;50.950;4.100;2023-01-29T06:59:55;90.57;;;44.33;;
52268;SDS011;38224;50.950;4.100;2023-01-29T07:02:20;85.43;;;39.47;;
52268;SDS011;38224;50.950;4.100;2023-01-29T07:04:45;87.07;;;37.97;;
52268;SDS011;38224;50.950;4.100;2023-01-29T07:07:11;84.93;;;41.57;;
52268;SDS011;38224;50.950;4.100;2023-01-29T07:09:39;88.60;;;41.55;;
52268;SDS011;38224;50.950;4.100;2023-01-29T07:12:05;82.43;;;39.55;;
52268;SDS011;38224;50.950;4.100;2023-01-29T07:14:30;86.28;;;40.80;;
52268;SDS011;38224;50.950;4.100;2023-01-29T07:16:55;84.60;;;39.90;;
52268;SDS011;38224;50.950;4.100;2023-01-29T07:19:20;89.83;;;42.43;;
52268;SDS011;38224;50.950;4.100;2023-01-29T07:21:46;87.43;;;42.13;;
52268;SDS011;38224;50.950;4.100;2023-01-29T07:24:11;85.57;;;41.78;;
52268;SDS011;38224;50.950;4.100;2023-01-29T07:26:36;90.35;;;42.28;;
52268;SDS011;38224;50.950;4.100;2023-01-29T07:29:03;81.35;;;39.85;;
52268;SDS011;38224;50.950;4.100;2023-01-29T07:31:28;87.18;;;41.90;;
52268;SDS011;38224;50.950;4.100;2023-01-29T07:33:54;85.57;;;40.40;;
52268;SDS011;38224;50.950;4.100;2023-01-29T07:36:19;86.68;;;39.08;;
52268;SDS011;38224;50.950;4.100;2023-01-29T07:38:47;85.30;;;41.65;;
52268;SDS011;38224;50.950;4.100;2023-01-29T07:41:13;94.78;;;43.35;;
52268;SDS011;38224;50.950;4.100;2023-01-29T07:43:38;84.03;;;41.00;;
52268;SDS011;38224;50.950;4.100;2023-01-29T07:46:03;89.93;;;40.77;;
52268;SDS011;38224;50.950;4.100;2023-01-29T07:48:29;83.18;;;41.70;;
52268;SDS011;38224;50.950;4.100;2023-01-29T07:50:54;89.30;;;43.60;;
52268;SDS011;38224;50.950;4.100;2023-01-29T07:53:20;75.25;;;38.20;;
52268;SDS011;38224;50.950;4.100;2023-01-29T07:55:45;87.32;;;43.30;;
52268;SDS011;38224;50.950;4.100;2023-01-29T07:58:10;83.70;;;42.83;;
52268;SDS011;38224;50.950;4.100;2023-01-29T08:00:36;88.18;;;42.00;;
52268;SDS011;38224;50.950;4.100;2023-01-29T08:03:06;94.53;;;44.45;;
52268;SDS011;38224;50.950;4.100;2023-01-29T08:05:32;85.05;;;44.17;;
52268;SDS011;38224;50.950;4.100;2023-01-29T08:07:57;95.38;;;46.70;;
52268;SDS011;38224;50.950;4.100;2023-01-29T08:10:23;83.50;;;41.28;;
52268;SDS011;38224;50.950;4.100;2023-01-29T08:12:52;89.88;;;43.45;;
52268;SDS011;38224;50.950;4.100;2023-01-29T08:15:17;89.00;;;43.40;;
52268;SDS011;38224;50.950;4.100;2023-01-29T08:17:43;88.03;;;43.60;;
52268;SDS011;38224;50.950;4.100;2023-01-29T08:20:08;87.73;;;42.27;;
52268;SDS011;38224;50.950;4.100;2023-01-29T08:22:34;90.90;;;42.63;;
52268;SDS011;38224;50.950;4.100;2023-01-29T08:24:59;95.40;;;44.00;;
52268;SDS011;38224;50.950;4.100;2023-01-29T08:27:24;88.40;;;42.50;;
52268;SDS011;38224;50.950;4.100;2023-01-29T08:29:49;88.20;;;40.90;;
52268;SDS011;38224;50.950;4.100;2023-01-29T08:32:15;84.43;;;42.33;;
52268;SDS011;38224;50.950;4.100;2023-01-29T08:34:40;90.45;;;43.47;;
52268;SDS011;38224;50.950;4.100;2023-01-29T08:37:05;96.13;;;43.90;;
52268;SDS011;38224;50.950;4.100;2023-01-29T08:39:31;81.57;;;41.33;;
52268;SDS011;38224;50.950;4.100;2023-01-29T08:41:56;87.63;;;42.73;;
52268;SDS011;38224;50.950;4.100;2023-01-29T08:44:21;83.07;;;39.08;;
52268;SDS011;38224;50.950;4.100;2023-01-29T08:46:46;83.40;;;40.00;;
52268;SDS011;38224;50.950;4.100;2023-01-29T08:49:12;88.85;;;42.70;;
52268;SDS011;38224;50.950;4.100;2023-01-29T08:51:37;86.20;;;43.17;;
52268;SDS011;38224;50.950;4.100;2023-01-29T08:54:02;77.70;;;40.25;;
52268;SDS011;38224;50.950;4.100;2023-01-29T08:56:27;87.68;;;41.83;;
52268;SDS011;38224;50.950;4.100;2023-01-29T08:58:53;78.63;;;40.57;;
52268;SDS011;38224;50.950;4.100;2023-01-29T09:01:18;84.83;;;42.80;;
52268;SDS011;38224;50.950;4.100;2023-01-29T09:03:43;77.38;;;40.15;;
52268;SDS011;38224;50.950;4.100;2023-01-29T09:06:09;83.90;;;39.83;;
52268;SDS011;38224;50.950;4.100;2023-01-29T09:08:35;83.30;;;41.67;;
52268;SDS011;38224;50.950;4.100;2023-01-29T09:11:00;81.63;;;40.22;;
52268;SDS011;38224;50.950;4.100;2023-01-29T09:13:25;84.47;;;40.72;;
52268;SDS011;38224;50.950;4.100;2023-01-29T09:15:51;82.50;;;42.50;;
52268;SDS011;38224;50.950;4.100;2023-01-29T09:18:16;82.07;;;41.17;;
52268;SDS011;38224;50.950;4.100;2023-01-29T09:20:41;78.63;;;41.40;;
52268;SDS011;38224;50.950;4.100;2023-01-29T09:23:07;76.43;;;38.08;;
52268;SDS011;38224;50.950;4.100;2023-01-29T09:25:33;80.70;;;41.03;;
52268;SDS011;38224;50.950;4.100;2023-01-29T09:27:58;84.68;;;42.22;;
52268;SDS011;38224;50.950;4.100;2023-01-29T09:30:23;84.50;;;42.50;;
52268;SDS011;38224;50.950;4.100;2023-01-29T09:32:49;84.53;;;44.70;;
52268;SDS011;38224;50.950;4.100;2023-01-29T09:35:14;87.85;;;42.90;;
52268;SDS011;38224;50.950;4.100;2023-01-29T09:37:39;91.70;;;44.63;;
52268;SDS011;38224;50.950;4.100;2023-01-29T09:40:05;86.27;;;44.00;;
52268;SDS011;38224;50.950;4.100;2023-01-29T09:45:25;88.00;;;41.05;;
52268;SDS011;38224;50.950;4.100;2023-01-29T09:47:51;85.43;;;43.78;;
52268;SDS011;38224;50.950;4.100;2023-01-29T09:50:21;85.50;;;43.83;;
52268;SDS011;38224;50.950;4.100;2023-01-29T09:58:31;81.30;;;40.67;;
52268;SDS011;38224;50.950;4.100;2023-01-29T10:00:59;81.78;;;42.78;;
52268;SDS011;38224;50.950;4.100;2023-01-29T10:11:11;86.07;;;43.45;;
52268;SDS011;38224;50.950;4.100;2023-01-29T10:13:47;89.13;;;43.63;;
52268;SDS011;38224;50.950;4.100;2023-01-29T10:16:20;80.03;;;39.92;;
52268;SDS011;38224;50.950;4.100;2023-01-29T10:21:30;82.10;;;40.58;;
52268;SDS011;38224;50.950;4.100;2023-01-29T10:24:07;80.32;;;40.63;;
52268;SDS011;38224;50.950;4.100;2023-01-29T10:26:36;73.50;;;37.70;;
52268;SDS011;38224;50.950;4.100;2023-01-29T10:29:04;75.63;;;37.63;;
52268;SDS011;38224;50.950;4.100;2023-01-29T10:31:31;81.38;;;41.38;;
52268;SDS011;38224;50.950;4.100;2023-01-29T10:34:01;75.47;;;37.15;;
52268;SDS011;38224;50.950;4.100;2023-01-29T10:36:40;70.55;;;37.95;;
52268;SDS011;38224;50.950;4.100;2023-01-29T10:39:14;69.80;;;36.33;;
52268;SDS011;38224;50.950;4.100;2023-01-29T10:59:18;67.93;;;35.43;;
52268;SDS011;38224;50.950;4.100;2023-01-29T11:01:48;65.88;;;34.97;;
52268;SDS011;38224;50.950;4.100;2023-01-29T11:04:13;63.40;;;33.33;;
52268;SDS011;38224;50.950;4.100;2023-01-29T11:06:40;62.08;;;33.80;;
52268;SDS011;38224;50.950;4.100;2023-01-29T11:11:59;61.60;;;33.08;;
52268;SDS011;38224;50.950;4.100;2023-01-29T11:17:18;71.43;;;35.22;;
52268;SDS011;38224;50.950;4.100;2023-01-29T11:19:45;62.58;;;33.42;;
52268;SDS011;38224;50.950;4.100;2023-01-29T11:22:14;65.78;;;34.45;;
52268;SDS011;38224;50.950;4.100;2023-01-29T11:24:40;58.42;;;30.13;;
52268;SDS011;38224;50.950;4.100;2023-01-29T11:27:19;62.58;;;32.17;;
52268;SDS011;38224;50.950;4.100;2023-01-29T11:29:46;60.42;;;32.42;;
52268;SDS011;38224;50.950;4.100;2023-01-29T11:32:13;59.72;;;32.67;;
52268;SDS011;38224;50.950;4.100;2023-01-29T11:37:23;56.53;;;30.65;;
52268;SDS011;38224;50.950;4.100;2023-01-29T11:39:55;63.15;;;32.30;;
52268;SDS011;38224;50.950;4.100;2023-01-29T11:42:21;67.95;;;31.33;;
52268;SDS011;38224;50.950;4.100;2023-01-29T11:44:46;62.75;;;33.13;;
52268;SDS011;38224;50.950;4.100;2023-01-29T11:47:16;58.37;;;30.87;;
52268;SDS011;38224;50.950;4.100;2023-01-29T11:49:44;60.88;;;30.48;;
52268;SDS011;38224;50.950;4.100;2023-01-29T11:52:10;71.25;;;32.22;;
52268;SDS011;38224;50.950;4.100;2023-01-29T11:54:37;62.55;;;33.28;;
52268;SDS011;38224;50.950;4.100;2023-01-29T11:57:04;64.80;;;33.72;;
52268;SDS011;38224;50.950;4.100;2023-01-29T12:01:54;52.50;;;28.77;;
52268;SDS011;38224;50.950;4.100;2023-01-29T12:04:21;53.40;;;29.77;;
52268;SDS011;38224;50.950;4.100;2023-01-29T12:06:47;58.55;;;31.80;;
52268;SDS011;38224;50.950;4.100;2023-01-29T12:09:16;51.05;;;29.25;;
52268;SDS011;38224;50.950;4.100;2023-01-29T12:11:42;53.97;;;30.05;;
52268;SDS011;38224;50.950;4.100;2023-01-29T12:14:22;52.03;;;29.43;;
52268;SDS011;38224;50.950;4.100;2023-01-29T12:16:53;53.05;;;29.50;;
52268;SDS011;38224;50.950;4.100;2023-01-29T12:19:54;55.85;;;29.55;;
52268;SDS011;38224;50.950;4.100;2023-01-29T12:27:14;47.87;;;26.47;;
52268;SDS011;38224;50.950;4.100;2023-01-29T12:34:51;47.00;;;25.60;;
52268;SDS011;38224;50.950;4.100;2023-01-29T12:39:43;47.53;;;24.87;;
52268;SDS011;38224;50.950;4.100;2023-01-29T12:42:13;62.30;;;27.08;;
52268;SDS011;38224;50.950;4.100;2023-01-29T12:44:44;44.83;;;26.38;;
52268;SDS011;38224;50.950;4.100;2023-01-29T12:47:13;47.33;;;25.73;;
52268;SDS011;38224;50.950;4.100;2023-01-29T12:49:41;44.42;;;24.88;;
52268;SDS011;38224;50.950;4.100;2023-01-29T12:54:44;51.88;;;25.77;;
52268;SDS011;38224;50.950;4.100;2023-01-29T12:57:17;45.40;;;25.00;;
52268;SDS011;38224;50.950;4.100;2023-01-29T12:59:46;45.63;;;24.83;;
52268;SDS011;38224;50.950;4.100;2023-01-29T13:02:29;45.05;;;23.10;;
52268;SDS011;38224;50.950;4.100;2023-01-29T13:05:00;43.70;;;24.30;;
52268;SDS011;38224;50.950;4.100;2023-01-29T13:07:29;40.88;;;24.48;;
52268;SDS011;38224;50.950;4.100;2023-01-29T13:09:57;42.22;;;22.90;;
52268;SDS011;38224;50.950;4.100;2023-01-29T13:12:26;42.10;;;23.80;;
52268;SDS011;38224;50.950;4.100;2023-01-29T13:14:56;46.92;;;23.80;;
52268;SDS011;38224;50.950;4.100;2023-01-29T13:19:51;40.58;;;22.13;;
52268;SDS011;38224;50.950;4.100;2023-01-29T13:22:24;39.80;;;22.10;;
52268;SDS011;38224;50.950;4.100;2023-01-29T13:24:50;43.90;;;23.42;;
52268;SDS011;38224;50.950;4.100;2023-01-29T13:27:34;42.80;;;22.88;;
52268;SDS011;38224;50.950;4.100;2023-01-29T13:30:00;40.78;;;22.67;;
52268;SDS011;38224;50.950;4.100;2023-01-29T13:32:30;44.38;;;23.35;;
52268;SDS011;38224;50.950;4.100;2023-01-29T13:34:56;49.35;;;23.10;;
52268;SDS011;38224;50.950;4.100;2023-01-29T13:37:30;38.88;;;23.02;;
52268;SDS011;38224;50.950;4.100;2023-01-29T13:39:57;42.83;;;22.50;;
52268;SDS011;38224;50.950;4.100;2023-01-29T13:45:01;46.17;;;24.30;;
52268;SDS011;38224;50.950;4.100;2023-01-29T13:47:28;44.45;;;24.17;;
52268;SDS011;38224;50.950;4.100;2023-01-29T13:52:56;43.28;;;22.30;;
52268;SDS011;38224;50.950;4.100;2023-01-29T13:55:34;40.92;;;20.67;;
52268;SDS011;38224;50.950;4.100;2023-01-29T14:00:49;37.15;;;20.55;;
52268;SDS011;38224;50.950;4.100;2023-01-29T14:05:40;35.17;;;20.80;;
52268;SDS011;38224;50.950;4.100;2023-01-29T14:10:37;42.03;;;21.48;;
52268;SDS011;38224;50.950;4.100;2023-01-29T14:15:32;38.20;;;19.10;;
52268;SDS011;38224;50.950;4.100;2023-01-29T14:23:03;40.83;;;21.08;;
52268;SDS011;38224;50.950;4.100;2023-01-29T14:25:31;45.30;;;23.35;;
52268;SDS011;38224;50.950;4.100;2023-01-29T14:27:58;42.00;;;22.02;;
52268;SDS011;38224;50.950;4.100;2023-01-29T14:30:24;42.28;;;23.45;;
52268;SDS011;38224;50.950;4.100;2023-01-29T14:32:51;64.78;;;28.77;;
52268;SDS011;38224;50.950;4.100;2023-01-29T14:35:17;49.75;;;24.70;;
52268;SDS011;38224;50.950;4.100;2023-01-29T14:37:44;45.00;;;22.80;;
52268;SDS011;38224;50.950;4.100;2023-01-29T14:42:50;45.67;;;22.83;;
52268;SDS011;38224;50.950;4.100;2023-01-29T14:45:24;48.00;;;23.55;;
52268;SDS011;38224;50.950;4.100;2023-01-29T14:52:52;49.17;;;25.48;;
52268;SDS011;38224;50.950;4.100;2023-01-29T14:55:26;47.70;;;25.30;;
52268;SDS011;38224;50.950;4.100;2023-01-29T14:57:51;46.05;;;24.23;;
52268;SDS011;38224;50.950;4.100;2023-01-29T15:00:26;41.92;;;24.50;;
52268;SDS011;38224;50.950;4.100;2023-01-29T15:02:51;45.08;;;25.38;;
52268;SDS011;38224;50.950;4.100;2023-01-29T15:05:21;52.00;;;26.00;;
52268;SDS011;38224;50.950;4.100;2023-01-29T15:07:52;48.22;;;25.58;;
52268;SDS011;38224;50.950;4.100;2023-01-29T15:10:19;48.33;;;27.15;;
52268;SDS011;38224;50.950;4.100;2023-01-29T15:15:32;45.17;;;25.20;;
52268;SDS011;38224;50.950;4.100;2023-01-29T15:18:12;52.28;;;28.13;;
52268;SDS011;38224;50.950;4.100;2023-01-29T15:20:39;57.05;;;27.30;;
52268;SDS011;38224;50.950;4.100;2023-01-29T15:25:50;55.95;;;29.48;;
52268;SDS011;38224;50.950;4.100;2023-01-29T15:28:16;55.38;;;29.23;;
52268;SDS011;38224;50.950;4.100;2023-01-29T15:30:41;57.45;;;28.83;;
52268;SDS011;38224;50.950;4.100;2023-01-29T15:33:07;50.08;;;27.27;;
52268;SDS011;38224;50.950;4.100;2023-01-29T15:35:38;49.00;;;27.83;;
52268;SDS011;38224;50.950;4.100;2023-01-29T15:38:20;47.40;;;27.00;;
52268;SDS011;38224;50.950;4.100;2023-01-29T15:40:53;55.13;;;28.58;;
52268;SDS011;38224;50.950;4.100;2023-01-29T15:43:22;51.58;;;29.48;;
52268;SDS011;38224;50.950;4.100;2023-01-29T15:45:49;55.40;;;27.70;;
52268;SDS011;38224;50.950;4.100;2023-01-29T15:48:17;63.35;;;29.65;;
52268;SDS011;38224;50.950;4.100;2023-01-29T15:50:43;54.08;;;28.55;;
52268;SDS011;38224;50.950;4.100;2023-01-29T15:53:13;53.33;;;29.15;;
52268;SDS011;38224;50.950;4.100;2023-01-29T15:55:39;56.92;;;28.45;;
52268;SDS011;38224;50.950;4.100;2023-01-29T15:58:05;50.90;;;26.40;;
52268;SDS011;38224;50.950;4.100;2023-01-29T16:00:31;50.00;;;27.48;;
52268;SDS011;38224;50.950;4.100;2023-01-29T16:02:57;48.85;;;27.55;;
52268;SDS011;38224;50.950;4.100;2023-01-29T16:05:26;57.00;;;29.15;;
52268;SDS011;38224;50.950;4.100;2023-01-29T16:07:52;51.85;;;28.13;;
52268;SDS011;38224;50.950;4.100;2023-01-29T16:10:20;53.45;;;27.00;;
52268;SDS011;38224;50.950;4.100;2023-01-29T16:12:47;50.15;;;27.40;;
52268;SDS011;38224;50.950;4.100;2023-01-29T16:15:34;55.58;;;29.85;;
52268;SDS011;38224;50.950;4.100;2023-01-29T16:18:01;54.53;;;25.85;;
52268;SDS011;38224;50.950;4.100;2023-01-29T16:20:38;55.05;;;26.70;;
52268;SDS011;38224;50.950;4.100;2023-01-29T16:23:05;54.78;;;28.77;;
52268;SDS011;38224;50.950;4.100;2023-01-29T16:25:31;56.97;;;29.02;;
52268;SDS011;38224;50.950;4.100;2023-01-29T16:27:58;53.35;;;27.23;;
52268;SDS011;38224;50.950;4.100;2023-01-29T16:30:27;52.72;;;29.00;;
52268;SDS011;38224;50.950;4.100;2023-01-29T16:32:52;54.30;;;28.05;;
52268;SDS011;38224;50.950;4.100;2023-01-29T16:35:17;52.05;;;26.73;;
52268;SDS011;38224;50.950;4.100;2023-01-29T16:37:46;44.15;;;24.35;;
52268;SDS011;38224;50.950;4.100;2023-01-29T16:40:14;55.63;;;28.52;;
52268;SDS011;38224;50.950;4.100;2023-01-29T16:42:41;59.05;;;29.17;;
52268;SDS011;38224;50.950;4.100;2023-01-29T16:45:27;53.42;;;27.58;;
52268;SDS011;38224;50.950;4.100;2023-01-29T16:48:01;55.08;;;29.50;;
52268;SDS011;38224;50.950;4.100;2023-01-29T16:50:43;52.00;;;27.85;;
52268;SDS011;38224;50.950;4.100;2023-01-29T16:53:12;59.83;;;30.83;;
52268;SDS011;38224;50.950;4.100;2023-01-29T16:55:41;61.42;;;30.55;;
52268;SDS011;38224;50.950;4.100;2023-01-29T16:58:20;60.40;;;32.05;;
52268;SDS011;38224;50.950;4.100;2023-01-29T17:00:46;60.03;;;30.73;;
52268;SDS011;38224;50.950;4.100;2023-01-29T17:03:13;60.05;;;29.58;;